Westland, Pennsylvania
Current Conditions -  °F | °C
As of 5:15 PM on Sunday 23 Nov 2014 (Local Time) from KAFJ Reporting Station
Clear Clear  
Wind Chill: 59°   Ceiling: Unl
Heat Index: 59°   Visibility: 10mi
Dew Point: 43°   Wind: 7mph
Humidity: 55%   Direction: 130°SE
Pressure: 29.82"   Gusts: NA
Location:  40.28°N, 80.27°W
Report Text: KAFJ 232215Z 13006KT 100V160 10SM CLR 15/06 A2982 RMK AO1
Loading
Personal Weather Stations






























Interactive Weather Map New forecast layout! Learn more

10-Day Weather Forecast

Advertisements
Track Severe Weather on mobile